Time;durP1;ratioP1;P1;durP2;ratioP2;P2;SDS_P1;SDS_P2;PMS_P1;PMS_P2;Temp;Humidity;BMP_temperature;BMP_pressure;BME280_temperature;BME280_humidity;BME280_pressure;Samples;Min_cycle;Max_cycle;Signal;HPM_P1;HPM_P2
2023/03/14 00:01:57;;;;;;;;;;;21.10;34.60;;;;;;8333253;28;19944;-45
2023/03/14 00:06:01;;;;;;;;;;;21.10;34.60;;;;;;8333318;28;20047;-45
2023/03/14 00:10:06;;;;;;;;;;;21.10;34.60;;;;;;8333044;28;19929;-46
2023/03/14 00:14:06;;;;;;;;;;;21.10;34.60;;;;;;8332573;28;19925;-45
2023/03/14 00:18:07;;;;;;;;;;;21.00;34.60;;;;;;8333267;28;20306;-45
2023/03/14 00:22:07;;;;;;;;;;;21.00;34.70;;;;;;8332657;28;20397;-46
2023/03/14 00:26:10;;;;;;;;;;;21.00;34.50;;;;;;8331944;28;19917;-44
2023/03/14 00:30:10;;;;;;;;;;;21.00;34.50;;;;;;8332487;28;20235;-44
2023/03/14 00:34:11;;;;;;;;;;;21.00;34.50;;;;;;8332422;28;19917;-46
2023/03/14 00:38:11;;;;;;;;;;;21.00;34.50;;;;;;8331879;28;19917;-46
2023/03/14 00:42:12;;;;;;;;;;;20.90;34.50;;;;;;8332629;28;19986;-45
2023/03/14 00:46:12;;;;;;;;;;;20.90;34.60;;;;;;8331762;28;20286;-47
2023/03/14 00:50:13;;;;;;;;;;;20.90;34.60;;;;;;8331281;28;19921;-45
2023/03/14 00:54:13;;;;;;;;;;;20.90;34.60;;;;;;8332210;28;20307;-46
2023/03/14 00:58:14;;;;;;;;;;;20.90;34.70;;;;;;8331760;28;20059;-45
2023/03/14 01:02:15;;;;;;;;;;;20.90;34.80;;;;;;8331294;28;19925;-46
2023/03/14 01:06:17;;;;;;;;;;;20.90;34.80;;;;;;8331349;28;19913;-46
2023/03/14 01:10:17;;;;;;;;;;;20.90;34.70;;;;;;8331637;28;19979;-48
2023/03/14 01:14:18;;;;;;;;;;;20.90;34.70;;;;;;8330546;28;19917;-48
2023/03/14 01:18:18;;;;;;;;;;;20.90;34.70;;;;;;8330703;28;19996;-47
2023/03/14 01:22:21;;;;;;;;;;;20.80;34.70;;;;;;8330647;28;19975;-47
2023/03/14 01:26:22;;;;;;;;;;;20.80;34.60;;;;;;8330275;28;19917;-47
2023/03/14 01:30:22;;;;;;;;;;;20.80;34.70;;;;;;8331153;28;20341;-47
2023/03/14 01:34:23;;;;;;;;;;;20.80;34.70;;;;;;8330058;28;19944;-46
2023/03/14 01:38:23;;;;;;;;;;;20.80;34.70;;;;;;8330763;28;19924;-47
2023/03/14 01:42:24;;;;;;;;;;;20.80;34.70;;;;;;8330574;28;19939;-48
2023/03/14 01:46:26;;;;;;;;;;;20.80;34.80;;;;;;8329936;28;20359;-47
2023/03/14 01:50:26;;;;;;;;;;;20.70;34.70;;;;;;8330634;28;19922;-46
2023/03/14 01:54:30;;;;;;;;;;;20.70;34.70;;;;;;8330316;28;20289;-47
2023/03/14 01:58:34;;;;;;;;;;;20.70;34.60;;;;;;8329785;28;19967;-46
2023/03/14 02:02:34;;;;;;;;;;;20.70;34.60;;;;;;8330462;28;19921;-46
2023/03/14 02:06:46;;;;;;;;;;;20.70;34.70;;;;;;8303638;28;19914;-47
2023/03/14 02:10:48;;;;;;;;;;;20.70;34.70;;;;;;8329811;28;19925;-46
2023/03/14 02:14:48;;;;;;;;;;;20.70;34.70;;;;;;8329902;28;20004;-47
2023/03/14 02:18:49;;;;;;;;;;;20.70;34.70;;;;;;8329877;28;19928;-47
2023/03/14 02:22:49;;;;;;;;;;;20.60;34.60;;;;;;8329307;28;19917;-47
2023/03/14 02:27:10;;;;;;;;;;;20.60;34.70;;;;;;8329581;28;20381;-46
2023/03/14 02:31:10;;;;;;;;;;;20.60;34.70;;;;;;8332598;28;19917;-46
2023/03/14 02:35:14;;;;;;;;;;;20.60;34.60;;;;;;8336036;28;19917;-47
2023/03/14 02:39:19;;;;;;;;;;;20.60;34.60;;;;;;8335854;28;19917;-45
2023/03/14 02:43:20;;;;;;;;;;;20.60;34.60;;;;;;8336269;28;19917;-45
2023/03/14 02:47:22;;;;;;;;;;;20.60;34.60;;;;;;8335280;28;19944;-46
2023/03/14 02:51:23;;;;;;;;;;;20.50;34.50;;;;;;8335802;28;19965;-46
2023/03/14 02:55:26;;;;;;;;;;;20.60;34.60;;;;;;8335621;28;19917;-46
2023/03/14 02:59:26;;;;;;;;;;;20.60;34.60;;;;;;8335813;28;19972;-45
2023/03/14 03:03:27;;;;;;;;;;;20.50;34.60;;;;;;8335323;28;19996;-49
2023/03/14 03:07:27;;;;;;;;;;;20.50;34.50;;;;;;8317145;28;19921;-46
2023/03/14 03:11:28;;;;;;;;;;;20.50;34.60;;;;;;8335556;28;19962;-45
2023/03/14 03:15:28;;;;;;;;;;;20.50;34.60;;;;;;8335325;28;19924;-46
2023/03/14 03:19:29;;;;;;;;;;;20.50;34.50;;;;;;8334572;28;19917;-46
2023/03/14 03:23:29;;;;;;;;;;;20.50;34.50;;;;;;8335163;28;20302;-46
2023/03/14 03:27:31;;;;;;;;;;;20.50;34.50;;;;;;8317012;28;20019;-45
2023/03/14 03:31:32;;;;;;;;;;;20.50;34.60;;;;;;8334588;28;20271;-46
2023/03/14 03:35:32;;;;;;;;;;;20.50;34.60;;;;;;8334651;28;19917;-46
2023/03/14 03:39:33;;;;;;;;;;;20.50;34.60;;;;;;8316522;28;19917;-47
2023/03/14 03:43:33;;;;;;;;;;;20.40;34.50;;;;;;8333088;28;19913;-48
2023/03/14 03:47:33;;;;;;;;;;;20.40;34.50;;;;;;8334187;28;19953;-47
2023/03/14 03:51:34;;;;;;;;;;;20.40;34.60;;;;;;8334228;28;19925;-47
2023/03/14 03:55:34;;;;;;;;;;;20.40;34.60;;;;;;8332935;28;20286;-47
2023/03/14 03:59:35;;;;;;;;;;;20.40;34.60;;;;;;8333288;28;19923;-46
2023/03/14 04:03:35;;;;;;;;;;;20.40;34.60;;;;;;8333350;28;19921;-46
2023/03/14 04:07:36;;;;;;;;;;;20.40;34.50;;;;;;8332845;28;20003;-46
2023/03/14 04:11:36;;;;;;;;;;;20.40;34.60;;;;;;8333901;28;19914;-46
2023/03/14 04:15:37;;;;;;;;;;;20.40;34.60;;;;;;8333373;28;19917;-48
2023/03/14 04:19:37;;;;;;;;;;;20.30;34.60;;;;;;8332707;28;20366;-47
2023/03/14 04:23:38;;;;;;;;;;;20.40;34.60;;;;;;8333274;28;19924;-47
2023/03/14 04:27:38;;;;;;;;;;;20.30;34.50;;;;;;8333033;28;19925;-46
2023/03/14 04:31:39;;;;;;;;;;;20.30;34.50;;;;;;8332626;28;20432;-48
2023/03/14 04:35:39;;;;;;;;;;;20.40;34.50;;;;;;8332562;28;20878;-47
2023/03/14 04:39:39;;;;;;;;;;;20.30;34.50;;;;;;8332629;28;19964;-49
2023/03/14 04:43:40;;;;;;;;;;;20.40;34.50;;;;;;8331954;28;19921;-49
2023/03/14 04:47:40;;;;;;;;;;;20.40;34.40;;;;;;8332222;28;20427;-49
2023/03/14 04:51:41;;;;;;;;;;;20.40;34.50;;;;;;8332351;28;19913;-50
2023/03/14 04:55:41;;;;;;;;;;;20.30;34.40;;;;;;8330643;28;19925;-46
2023/03/14 04:59:42;;;;;;;;;;;20.40;34.40;;;;;;8332199;28;19917;-45
2023/03/14 05:03:42;;;;;;;;;;;20.30;34.40;;;;;;8331908;28;19922;-46
2023/03/14 05:07:43;;;;;;;;;;;20.40;34.50;;;;;;8331195;28;20445;-45
2023/03/14 05:11:43;;;;;;;;;;;20.40;34.40;;;;;;8331063;28;20340;-46
2023/03/14 05:15:44;;;;;;;;;;;20.50;34.30;;;;;;8331386;28;19964;-46
2023/03/14 05:19:44;;;;;;;;;;;20.50;34.30;;;;;;8330920;28;19924;-46
2023/03/14 05:23:45;;;;;;;;;;;20.60;34.20;;;;;;8331062;28;19924;-47
2023/03/14 05:27:45;;;;;;;;;;;20.60;34.20;;;;;;8331033;28;20371;-46
2023/03/14 05:31:45;;;;;;;;;;;20.80;34.20;;;;;;8330836;28;19924;-46
2023/03/14 05:35:46;;;;;;;;;;;20.80;34.10;;;;;;8330817;28;20000;-47
2023/03/14 05:39:46;;;;;;;;;;;20.90;34.10;;;;;;8330693;28;19917;-46
2023/03/14 05:43:47;;;;;;;;;;;20.90;34.00;;;;;;8330063;28;20298;-46
2023/03/14 05:47:47;;;;;;;;;;;21.00;34.10;;;;;;8330555;28;19935;-44
2023/03/14 05:51:48;;;;;;;;;;;21.00;34.10;;;;;;8330753;28;19913;-47
2023/03/14 05:55:51;;;;;;;;;;;21.10;34.10;;;;;;8329842;28;20394;-46
2023/03/14 05:59:51;;;;;;;;;;;21.10;34.20;;;;;;8330149;28;19925;-46
2023/03/14 06:03:51;;;;;;;;;;;21.00;34.10;;;;;;8330063;28;19971;-47
2023/03/14 06:07:52;;;;;;;;;;;21.00;34.00;;;;;;8329283;28;19928;-48
2023/03/14 06:11:52;;;;;;;;;;;21.00;34.10;;;;;;8330165;28;20294;-46
2023/03/14 06:15:53;;;;;;;;;;;21.00;34.20;;;;;;8329855;28;19924;-46
2023/03/14 06:19:53;;;;;;;;;;;21.00;34.20;;;;;;8329439;28;19944;-46
2023/03/14 06:23:54;;;;;;;;;;;21.00;34.20;;;;;;8329651;28;19924;-45
2023/03/14 06:27:54;;;;;;;;;;;21.00;34.20;;;;;;8329786;28;19964;-45
2023/03/14 06:31:55;;;;;;;;;;;20.90;34.20;;;;;;8329454;28;20382;-47
2023/03/14 06:35:55;;;;;;;;;;;20.90;34.30;;;;;;8329675;28;19917;-46
2023/03/14 06:39:55;;;;;;;;;;;20.90;34.30;;;;;;8329680;28;19917;-47
2023/03/14 06:43:56;;;;;;;;;;;20.90;34.30;;;;;;8328908;28;19968;-47
2023/03/14 06:47:56;;;;;;;;;;;20.90;34.20;;;;;;8329360;28;19967;-46
2023/03/14 06:51:57;;;;;;;;;;;20.90;34.20;;;;;;8329944;28;20004;-45
2023/03/14 06:55:57;;;;;;;;;;;20.90;34.10;;;;;;8328834;28;19917;-47
2023/03/14 06:59:58;;;;;;;;;;;21.00;34.10;;;;;;8329273;28;19918;-46
2023/03/14 07:03:58;;;;;;;;;;;21.00;34.10;;;;;;8329270;28;19925;-46
2023/03/14 07:07:59;;;;;;;;;;;21.10;34.10;;;;;;8328749;28;19921;-47
2023/03/14 07:11:59;;;;;;;;;;;21.10;34.00;;;;;;8329519;28;19962;-45
2023/03/14 07:16:00;;;;;;;;;;;21.10;34.00;;;;;;8329017;28;19921;-46
2023/03/14 07:20:00;;;;;;;;;;;21.20;34.00;;;;;;8333830;28;20004;-46
2023/03/14 07:24:01;;;;;;;;;;;21.20;34.00;;;;;;8335181;28;19917;-46
2023/03/14 07:28:01;;;;;;;;;;;21.20;34.00;;;;;;8334984;28;19928;-45
2023/03/14 07:32:02;;;;;;;;;;;21.30;34.00;;;;;;8334169;28;20388;-45
2023/03/14 07:36:03;;;;;;;;;;;21.30;34.00;;;;;;8334397;28;19923;-45
2023/03/14 07:40:06;;;;;;;;;;;21.30;34.10;;;;;;8334423;28;19928;-46
2023/03/14 07:44:07;;;;;;;;;;;21.30;34.00;;;;;;8333821;28;20355;-46
2023/03/14 07:48:07;;;;;;;;;;;21.30;34.00;;;;;;8334498;28;20016;-46
2023/03/14 07:52:08;;;;;;;;;;;21.20;34.10;;;;;;8334068;28;20003;-45
2023/03/14 07:56:08;;;;;;;;;;;21.20;34.10;;;;;;8333285;28;19975;-46
2023/03/14 08:00:09;;;;;;;;;;;21.20;34.20;;;;;;8333799;28;19924;-47
2023/03/14 08:04:10;;;;;;;;;;;21.10;34.20;;;;;;8334229;28;19992;-46
2023/03/14 08:08:10;;;;;;;;;;;21.10;34.30;;;;;;8332648;28;19928;-46
2023/03/14 08:12:11;;;;;;;;;;;21.10;34.20;;;;;;8333461;28;19921;-46
2023/03/14 08:16:11;;;;;;;;;;;21.10;34.30;;;;;;8333415;28;19917;-46
2023/03/14 08:20:13;;;;;;;;;;;21.00;34.20;;;;;;8332606;28;19917;-46
2023/03/14 08:24:13;;;;;;;;;;;21.00;34.20;;;;;;8333167;28;20330;-46
2023/03/14 08:28:13;;;;;;;;;;;21.00;34.20;;;;;;8332922;28;19925;-47
2023/03/14 08:32:14;;;;;;;;;;;21.00;34.20;;;;;;8332484;28;19988;-47
2023/03/14 08:36:14;;;;;;;;;;;21.00;34.20;;;;;;8333056;28;19921;-46
2023/03/14 08:40:16;;;;;;;;;;;21.00;34.10;;;;;;8332650;28;20007;-46
2023/03/14 08:44:17;;;;;;;;;;;21.00;34.20;;;;;;8331831;28;19920;-45
2023/03/14 08:48:19;;;;;;;;;;;20.90;34.10;;;;;;8332759;28;19928;-45
2023/03/14 08:52:19;;;;;;;;;;;20.90;34.10;;;;;;8332262;28;20005;-47
2023/03/14 08:56:20;;;;;;;;;;;20.90;34.00;;;;;;8331439;28;19975;-46
2023/03/14 09:00:20;;;;;;;;;;;20.90;34.00;;;;;;8331846;28;20000;-46
2023/03/14 09:04:21;;;;;;;;;;;20.90;34.00;;;;;;8331843;28;20374;-46
2023/03/14 09:08:21;;;;;;;;;;;20.90;34.00;;;;;;8331391;28;19928;-46
2023/03/14 09:12:22;;;;;;;;;;;20.90;34.00;;;;;;8331648;28;20432;-46
2023/03/14 09:16:22;;;;;;;;;;;20.90;34.00;;;;;;8330899;28;19921;-46
2023/03/14 09:20:23;;;;;;;;;;;20.90;34.10;;;;;;8331151;28;19924;-47
2023/03/14 09:24:23;;;;;;;;;;;20.90;34.60;;;;;;8330936;28;19917;-47
2023/03/14 09:28:24;;;;;;;;;;;20.80;34.00;;;;;;8330622;28;19975;-47
2023/03/14 09:32:25;;;;;;;;;;;20.80;34.00;;;;;;8331168;28;20310;-47
2023/03/14 09:36:25;;;;;;;;;;;20.80;34.00;;;;;;8330658;28;20003;-47
2023/03/14 09:40:30;;;;;;;;;;;20.80;34.00;;;;;;8329346;28;19917;-47
2023/03/14 09:44:32;;;;;;;;;;;20.80;34.00;;;;;;8330801;28;20394;-47
2023/03/14 09:48:33;;;;;;;;;;;20.90;34.10;;;;;;8330617;28;20386;-47
2023/03/14 09:52:36;;;;;;;;;;;20.80;34.00;;;;;;8329806;28;19925;-51
2023/03/14 09:56:37;;;;;;;;;;;20.80;34.00;;;;;;8330285;28;19917;-46
2023/03/14 10:00:37;;;;;;;;;;;20.80;34.00;;;;;;8312427;28;19940;-47
2023/03/14 10:04:41;;;;;;;;;;;20.80;34.00;;;;;;8329620;28;19917;-45
2023/03/14 10:08:42;;;;;;;;;;;20.80;34.10;;;;;;8330099;28;20006;-48
2023/03/14 10:12:44;;;;;;;;;;;20.80;34.10;;;;;;8329919;28;19924;-50
2023/03/14 10:16:45;;;;;;;;;;;20.70;34.10;;;;;;8295162;28;19923;-47
2023/03/14 10:20:47;;;;;;;;;;;20.70;34.10;;;;;;8329811;28;19921;-48
2023/03/14 10:24:52;;;;;;;;;;;20.70;34.10;;;;;;8329929;28;20413;-47
2023/03/14 10:29:00;;;;;;;;;;;20.70;34.10;;;;;;8329171;28;19925;-47
2023/03/14 10:33:07;;;;;;;;;;;20.70;34.10;;;;;;8329605;28;19927;-48
2023/03/14 10:37:21;;;;;;;;;;;20.70;34.10;;;;;;8329654;28;20481;-47
2023/03/14 10:41:25;;;;;;;;;;;20.70;34.20;;;;;;8328851;28;20438;-47
2023/03/14 10:45:52;;;;;;;;;;;20.70;34.20;;;;;;8329375;28;19925;-48
2023/03/14 10:49:52;;;;;;;;;;;20.70;34.20;;;;;;8324794;28;19948;-47
2023/03/14 10:54:04;;;;;;;;;;;20.60;34.20;;;;;;8333414;28;19914;-46
2023/03/14 10:58:04;;;;;;;;;;;20.60;34.20;;;;;;8335564;28;19924;-47
2023/03/14 11:02:23;;;;;;;;;;;20.70;34.30;;;;;;8335053;28;20012;-47
2023/03/14 11:06:57;;;;;;;;;;;20.60;34.30;;;;;;8335263;28;19914;-48
2023/03/14 11:11:07;;;;;;;;;;;20.60;34.30;;;;;;8289885;28;20336;-48
2023/03/14 11:15:16;;;;;;;;;;;20.60;34.30;;;;;;8335253;28;19914;-47
2023/03/14 11:19:20;;;;;;;;;;;20.60;34.30;;;;;;8335196;28;19918;-46
2023/03/14 11:23:21;;;;;;;;;;;20.60;34.30;;;;;;8334274;28;19928;-46
2023/03/14 11:27:25;;;;;;;;;;;20.60;34.30;;;;;;8334677;28;20358;-47
2023/03/14 11:31:27;;;;;;;;;;;20.60;34.40;;;;;;8334341;28;19920;-46
2023/03/14 11:35:33;;;;;;;;;;;20.60;34.40;;;;;;8334765;28;19919;-48
2023/03/14 11:39:41;;;;;;;;;;;20.50;34.40;;;;;;8334889;28;19917;-45
2023/03/14 11:43:46;;;;;;;;;;;20.50;34.40;;;;;;8333954;28;19929;-47
2023/03/14 11:47:51;;;;;;;;;;;20.50;34.40;;;;;;8334069;28;19925;-46
2023/03/14 11:51:53;;;;;;;;;;;20.50;34.40;;;;;;8333841;28;19913;-46
2023/03/14 11:55:54;;;;;;;;;;;20.50;34.40;;;;;;8333431;28;19948;-46
2023/03/14 11:59:57;;;;;;;;;;;20.50;34.40;;;;;;8334028;28;20604;-47
2023/03/14 12:04:01;;;;;;;;;;;20.50;34.50;;;;;;8333386;28;19936;-50
2023/03/14 12:08:08;;;;;;;;;;;20.50;34.50;;;;;;8332959;28;19964;-46
2023/03/14 12:12:11;;;;;;;;;;;20.50;34.50;;;;;;8333667;28;19940;-46
2023/03/14 12:16:24;;;;;;;;;;;20.50;34.50;;;;;;8315481;28;20297;-47
2023/03/14 12:20:25;;;;;;;;;;;20.50;34.60;;;;;;8332759;28;20338;-46
2023/03/14 12:24:28;;;;;;;;;;;20.50;34.60;;;;;;8333263;28;19920;-47
2023/03/14 12:28:32;;;;;;;;;;;20.40;34.60;;;;;;8332499;28;20341;-47
2023/03/14 12:32:32;;;;;;;;;;;20.40;34.60;;;;;;8332825;28;19924;-46
2023/03/14 12:36:51;;;;;;;;;;;20.40;34.60;;;;;;8332642;28;19924;-49
2023/03/14 12:40:51;;;;;;;;;;;20.50;34.70;;;;;;8331965;28;20340;-46
2023/03/14 12:44:52;;;;;;;;;;;20.50;34.70;;;;;;8332419;28;19999;-50
2023/03/14 12:48:55;;;;;;;;;;;20.40;34.60;;;;;;8331935;28;19925;-46
2023/03/14 12:53:12;;;;;;;;;;;20.40;34.60;;;;;;8331436;28;20003;-46
2023/03/14 12:57:12;;;;;;;;;;;20.40;34.60;;;;;;8332196;28;19921;-46
2023/03/14 13:01:17;;;;;;;;;;;20.40;34.60;;;;;;8331798;28;20385;-47
2023/03/14 13:05:22;;;;;;;;;;;20.40;34.60;;;;;;8331211;28;19917;-47
2023/03/14 13:09:25;;;;;;;;;;;20.40;34.60;;;;;;8331477;28;20390;-46
2023/03/14 13:13:26;;;;;;;;;;;20.40;34.60;;;;;;8330933;28;19917;-45
2023/03/14 13:17:31;;;;;;;;;;;20.40;34.50;;;;;;8329957;28;21311;-50
2023/03/14 13:21:35;;;;;;;;;;;20.50;34.40;;;;;;8331026;28;19913;-45
2023/03/14 13:25:35;;;;;;;;;;;20.50;34.40;;;;;;8330353;28;20386;-47
2023/03/14 13:29:36;;;;;;;;;;;20.50;34.30;;;;;;8331080;28;19925;-50
2023/03/14 13:33:40;;;;;;;;;;;20.40;34.20;;;;;;8330930;28;20570;-47
2023/03/14 13:37:41;;;;;;;;;;;20.50;34.30;;;;;;8330409;28;19948;-46
2023/03/14 13:41:41;;;;;;;;;;;20.40;34.10;;;;;;8330718;28;20407;-47
2023/03/14 13:45:52;;;;;;;;;;;20.40;34.10;;;;;;8330618;28;19940;-46
2023/03/14 13:49:53;;;;;;;;;;;20.40;34.10;;;;;;8330006;28;20341;-45
2023/03/14 13:53:54;;;;;;;;;;;20.40;34.20;;;;;;8330777;28;19917;-47
2023/03/14 13:57:55;;;;;;;;;;;20.40;34.10;;;;;;8330519;28;19913;-47
2023/03/14 14:01:57;;;;;;;;;;;20.40;34.00;;;;;;8329978;28;19921;-46
2023/03/14 14:05:58;;;;;;;;;;;20.50;34.00;;;;;;8330251;28;20369;-46
2023/03/14 14:10:01;;;;;;;;;;;20.50;34.00;;;;;;8329322;28;19925;-46
2023/03/14 14:14:02;;;;;;;;;;;20.40;33.90;;;;;;8329334;28;19953;-46
2023/03/14 14:18:08;;;;;;;;;;;20.40;33.80;;;;;;8329829;28;19917;-47
2023/03/14 14:22:10;;;;;;;;;;;20.50;33.90;;;;;;8329909;28;19920;-46
2023/03/14 14:26:14;;;;;;;;;;;20.50;34.00;;;;;;8330416;28;20016;-46
2023/03/14 14:30:17;;;;;;;;;;;20.40;33.90;;;;;;8336715;28;20366;-46
2023/03/14 14:34:18;;;;;;;;;;;20.40;33.90;;;;;;8336276;28;19948;-47
2023/03/14 14:38:20;;;;;;;;;;;20.40;33.90;;;;;;8335744;28;20004;-47
2023/03/14 14:42:22;;;;;;;;;;;20.30;33.90;;;;;;8336497;28;19917;-46
2023/03/14 14:46:22;;;;;;;;;;;20.40;33.90;;;;;;8335384;28;19925;-49
2023/03/14 14:50:25;;;;;;;;;;;20.40;33.90;;;;;;8335697;28;19925;-51
2023/03/14 14:54:46;;;;;;;;;;;20.40;33.90;;;;;;8335652;28;20290;-47
2023/03/14 14:58:47;;;;;;;;;;;20.40;33.90;;;;;;8334574;28;19963;-44
2023/03/14 15:02:48;;;;;;;;;;;20.30;33.80;;;;;;8335361;28;19921;-45
2023/03/14 15:06:49;;;;;;;;;;;20.40;33.90;;;;;;8335425;28;19952;-46
2023/03/14 15:10:50;;;;;;;;;;;20.40;33.90;;;;;;8335052;28;20008;-45
2023/03/14 15:14:50;;;;;;;;;;;20.30;33.90;;;;;;8335185;28;20294;-49
2023/03/14 15:18:57;;;;;;;;;;;20.30;33.90;;;;;;8335200;28;19917;-45
2023/03/14 15:22:57;;;;;;;;;;;20.30;33.90;;;;;;8334489;28;19921;-47
2023/03/14 15:27:04;;;;;;;;;;;20.30;33.80;;;;;;8335220;28;20374;-48
2023/03/14 15:31:05;;;;;;;;;;;20.30;33.80;;;;;;8334571;28;19924;-46
2023/03/14 15:35:05;;;;;;;;;;;20.30;33.80;;;;;;8334199;28;19917;-48
2023/03/14 15:39:06;;;;;;;;;;;20.30;33.80;;;;;;8333472;28;19917;-46
2023/03/14 15:43:07;;;;;;;;;;;20.30;33.70;;;;;;8334229;28;19914;-47
2023/03/14 15:47:09;;;;;;;;;;;20.40;33.70;;;;;;8333174;28;19917;-46
2023/03/14 15:51:10;;;;;;;;;;;20.30;33.60;;;;;;8333861;28;20363;-46
2023/03/14 15:55:11;;;;;;;;;;;20.30;33.70;;;;;;8333913;28;19974;-45
2023/03/14 15:59:11;;;;;;;;;;;20.30;33.80;;;;;;8333224;28;19917;-46
2023/03/14 16:03:12;;;;;;;;;;;20.30;33.80;;;;;;8333521;28;19929;-45
2023/03/14 16:07:12;;;;;;;;;;;20.30;33.80;;;;;;8333113;28;19917;-49
2023/03/14 16:11:14;;;;;;;;;;;20.30;33.90;;;;;;8332995;28;19963;-47
2023/03/14 16:15:15;;;;;;;;;;;20.30;33.70;;;;;;8333324;28;19917;-47
2023/03/14 16:19:15;;;;;;;;;;;20.50;33.70;;;;;;8333022;28;19940;-47
2023/03/14 16:23:17;;;;;;;;;;;20.50;33.60;;;;;;8332552;28;19924;-46
2023/03/14 16:27:17;;;;;;;;;;;20.60;33.60;;;;;;8332964;28;19917;-47
2023/03/14 16:31:20;;;;;;;;;;;20.70;33.50;;;;;;8332813;28;20370;-49
2023/03/14 16:35:20;;;;;;;;;;;20.70;33.40;;;;;;8331859;28;19921;-49
2023/03/14 16:39:20;;;;;;;;;;;20.80;33.50;;;;;;8332154;28;20009;-49
2023/03/14 16:43:21;;;;;;;;;;;20.80;33.40;;;;;;8314318;28;19924;-47
2023/03/14 16:47:21;;;;;;;;;;;20.90;33.40;;;;;;8331312;28;19967;-47
2023/03/14 16:51:22;;;;;;;;;;;20.90;33.30;;;;;;8332229;28;19971;-47
2023/03/14 16:55:23;;;;;;;;;;;21.00;33.30;;;;;;8331588;28;19917;-47
2023/03/14 16:59:24;;;;;;;;;;;21.00;33.40;;;;;;8332216;28;19924;-47
2023/03/14 17:03:26;;;;;;;;;;;21.10;33.40;;;;;;8332085;28;19921;-48
2023/03/14 17:07:26;;;;;;;;;;;21.00;33.30;;;;;;8313088;28;20371;-45
2023/03/14 17:11:27;;;;;;;;;;;21.00;33.30;;;;;;8331771;28;19913;-45
2023/03/14 17:15:27;;;;;;;;;;;21.00;33.30;;;;;;8331552;28;19940;-47
2023/03/14 17:19:28;;;;;;;;;;;21.00;33.40;;;;;;8330728;28;20027;-49
2023/03/14 17:23:29;;;;;;;;;;;21.00;33.40;;;;;;8331110;28;19917;-47
2023/03/14 17:27:30;;;;;;;;;;;21.00;33.40;;;;;;8331234;28;19963;-47
2023/03/14 17:31:31;;;;;;;;;;;20.90;33.40;;;;;;8330673;28;20441;-47
2023/03/14 17:35:31;;;;;;;;;;;20.90;33.40;;;;;;8330541;28;20008;-47
2023/03/14 17:39:31;;;;;;;;;;;20.90;33.50;;;;;;8330741;28;19917;-47
2023/03/14 17:43:32;;;;;;;;;;;20.90;33.50;;;;;;8330092;28;20449;-48
2023/03/14 17:47:33;;;;;;;;;;;20.80;33.50;;;;;;8330503;28;19975;-47
2023/03/14 17:51:33;;;;;;;;;;;20.90;33.50;;;;;;8330451;28;20047;-47
2023/03/14 17:55:34;;;;;;;;;;;20.80;33.50;;;;;;8329769;28;19964;-51
2023/03/14 17:59:34;;;;;;;;;;;20.80;33.50;;;;;;8330098;28;20366;-47
2023/03/14 18:03:34;;;;;;;;;;;20.90;33.60;;;;;;8329555;28;19921;-47
2023/03/14 18:07:35;;;;;;;;;;;20.90;33.50;;;;;;8329573;28;19952;-48
2023/03/14 18:11:36;;;;;;;;;;;20.90;33.50;;;;;;8330041;28;20018;-47
2023/03/14 18:15:36;;;;;;;;;;;20.90;33.50;;;;;;8329792;28;19943;-47
2023/03/14 18:19:38;;;;;;;;;;;20.90;33.50;;;;;;8329526;28;19917;-48
2023/03/14 18:23:38;;;;;;;;;;;21.00;33.50;;;;;;8330090;28;19918;-48
2023/03/14 18:27:39;;;;;;;;;;;21.00;33.40;;;;;;8329896;28;19917;-47
2023/03/14 18:31:40;;;;;;;;;;;21.00;33.40;;;;;;8329480;28;19921;-47
2023/03/14 18:35:40;;;;;;;;;;;21.10;33.40;;;;;;8329595;28;19921;-48
2023/03/14 18:39:41;;;;;;;;;;;21.10;33.40;;;;;;8329456;28;20464;-49
2023/03/14 18:43:42;;;;;;;;;;;21.10;33.40;;;;;;8328737;28;19998;-46
2023/03/14 18:47:42;;;;;;;;;;;21.10;33.50;;;;;;8329340;28;20326;-47
2023/03/14 18:51:42;;;;;;;;;;;21.00;33.50;;;;;;8329278;28;19924;-46
2023/03/14 18:55:43;;;;;;;;;;;21.00;33.50;;;;;;8328600;28;19991;-45
2023/03/14 18:59:44;;;;;;;;;;;21.00;33.50;;;;;;8331069;28;19925;-46
2023/03/14 19:03:46;;;;;;;;;;;21.00;33.60;;;;;;8353682;28;19928;-46
2023/03/14 19:07:46;;;;;;;;;;;20.90;33.50;;;;;;8328620;28;19932;-45
2023/03/14 19:11:47;;;;;;;;;;;20.90;33.50;;;;;;8328817;28;20345;-44
2023/03/14 19:15:47;;;;;;;;;;;20.90;33.50;;;;;;8333894;28;20337;-45
2023/03/14 19:19:50;;;;;;;;;;;20.90;33.50;;;;;;8334425;28;19921;-46
2023/03/14 19:23:51;;;;;;;;;;;20.80;33.50;;;;;;8334950;28;19921;-49
2023/03/14 19:27:51;;;;;;;;;;;20.80;33.50;;;;;;8335170;28;20011;-47
2023/03/14 19:31:53;;;;;;;;;;;20.80;33.50;;;;;;8334078;28;19929;-46
2023/03/14 19:35:53;;;;;;;;;;;20.80;33.60;;;;;;8334601;28;20388;-47
2023/03/14 19:39:53;;;;;;;;;;;20.80;33.50;;;;;;8334337;28;19917;-47
2023/03/14 19:43:54;;;;;;;;;;;20.80;33.60;;;;;;8334247;28;19924;-45
2023/03/14 19:47:54;;;;;;;;;;;20.90;33.50;;;;;;8334308;28;19975;-46
2023/03/14 19:51:55;;;;;;;;;;;20.90;34.00;;;;;;8334055;28;19917;-47
2023/03/14 19:55:56;;;;;;;;;;;20.90;33.40;;;;;;8333371;28;19932;-45
2023/03/14 19:59:56;;;;;;;;;;;21.00;33.40;;;;;;8333846;28;19971;-47
2023/03/14 20:03:57;;;;;;;;;;;21.00;33.40;;;;;;8331126;28;20323;-47
2023/03/14 20:07:57;;;;;;;;;;;21.10;33.40;;;;;;8333587;28;19921;-47
2023/03/14 20:11:58;;;;;;;;;;;21.10;33.40;;;;;;8333797;28;19917;-46
2023/03/14 20:15:58;;;;;;;;;;;21.00;33.30;;;;;;8333156;28;20019;-46
2023/03/14 20:19:59;;;;;;;;;;;21.00;33.30;;;;;;8332675;28;19917;-47
2023/03/14 20:23:59;;;;;;;;;;;21.00;33.40;;;;;;8332943;28;19956;-47
2023/03/14 20:28:00;;;;;;;;;;;21.00;33.40;;;;;;8333194;28;19928;-47
2023/03/14 20:32:01;;;;;;;;;;;21.00;33.30;;;;;;8332520;28;19921;-47
2023/03/14 20:36:01;;;;;;;;;;;21.00;33.40;;;;;;8333020;28;19921;-46
2023/03/14 20:40:06;;;;;;;;;;;20.90;33.40;;;;;;8332609;28;19964;-47
2023/03/14 20:44:12;;;;;;;;;;;20.90;33.40;;;;;;8331995;28;19917;-46
2023/03/14 20:48:12;;;;;;;;;;;20.90;33.50;;;;;;8332605;28;19925;-47
2023/03/14 20:52:14;;;;;;;;;;;20.90;33.50;;;;;;8332371;28;19917;-46
2023/03/14 20:56:14;;;;;;;;;;;20.80;33.50;;;;;;8331544;28;20334;-46
2023/03/14 21:00:15;;;;;;;;;;;20.80;33.50;;;;;;8331971;28;19971;-46
2023/03/14 21:04:16;;;;;;;;;;;20.80;33.50;;;;;;8332008;28;19921;-47
2023/03/14 21:08:18;;;;;;;;;;;20.80;33.50;;;;;;8331446;28;20452;-46
2023/03/14 21:12:19;;;;;;;;;;;20.80;33.60;;;;;;8332125;28;20477;-46
2023/03/14 21:16:19;;;;;;;;;;;20.80;33.60;;;;;;8331582;28;19975;-45
2023/03/14 21:20:20;;;;;;;;;;;20.80;33.50;;;;;;8331272;28;19925;-46
2023/03/14 21:24:21;;;;;;;;;;;20.90;33.60;;;;;;8331599;28;20366;-46
2023/03/14 21:28:21;;;;;;;;;;;20.90;33.50;;;;;;8331458;28;20313;-46
2023/03/14 21:32:22;;;;;;;;;;;20.90;33.50;;;;;;8331247;28;19924;-46
2023/03/14 21:36:22;;;;;;;;;;;21.00;33.50;;;;;;8330416;28;19963;-46
2023/03/14 21:40:23;;;;;;;;;;;21.00;33.40;;;;;;8330292;28;19924;-44
2023/03/14 21:44:23;;;;;;;;;;;21.00;33.40;;;;;;8330427;28;19917;-45
2023/03/14 21:48:24;;;;;;;;;;;21.00;33.40;;;;;;8330650;28;20294;-46
2023/03/14 21:52:26;;;;;;;;;;;20.90;33.30;;;;;;8330183;28;19916;-46
2023/03/14 21:56:26;;;;;;;;;;;20.90;33.40;;;;;;8330651;28;20294;-46
2023/03/14 22:00:27;;;;;;;;;;;20.90;33.40;;;;;;8330539;28;19917;-46
2023/03/14 22:04:33;;;;;;;;;;;20.90;33.40;;;;;;8329608;28;19925;-46
2023/03/14 22:08:33;;;;;;;;;;;20.80;33.30;;;;;;8330209;28;19927;-46
2023/03/14 22:12:34;;;;;;;;;;;20.80;33.40;;;;;;8330074;28;19917;-46
2023/03/14 22:16:34;;;;;;;;;;;20.80;33.30;;;;;;8329463;28;19917;-46
2023/03/14 22:20:35;;;;;;;;;;;20.70;33.30;;;;;;8329894;28;19917;-46
2023/03/14 22:24:35;;;;;;;;;;;20.70;33.40;;;;;;8329957;28;19928;-44
2023/03/14 22:28:36;;;;;;;;;;;20.70;33.40;;;;;;8329468;28;19947;-46
2023/03/14 22:32:36;;;;;;;;;;;20.70;33.40;;;;;;8329946;28;19925;-44
2023/03/14 22:36:37;;;;;;;;;;;20.60;33.50;;;;;;8329711;28;19983;-46
2023/03/14 22:40:37;;;;;;;;;;;20.60;33.50;;;;;;8329170;28;19984;-46
2023/03/14 22:44:38;;;;;;;;;;;20.60;33.50;;;;;;8329878;28;20358;-46
2023/03/14 22:48:38;;;;;;;;;;;20.60;33.50;;;;;;8333200;28;20379;-46
2023/03/14 22:52:39;;;;;;;;;;;20.50;33.60;;;;;;8335676;28;19921;-45
2023/03/14 22:56:39;;;;;;;;;;;20.50;33.60;;;;;;8335833;28;19917;-47
2023/03/14 23:00:40;;;;;;;;;;;20.50;33.60;;;;;;8334877;28;20298;-46
2023/03/14 23:04:40;;;;;;;;;;;20.50;34.10;;;;;;8334212;28;19925;-45
2023/03/14 23:08:41;;;;;;;;;;;20.40;34.10;;;;;;8336145;28;19929;-45
2023/03/14 23:12:44;;;;;;;;;;;20.40;33.50;;;;;;8335389;28;19924;-45
2023/03/14 23:16:46;;;;;;;;;;;20.40;33.60;;;;;;8334872;28;19917;-46
2023/03/14 23:20:47;;;;;;;;;;;20.40;33.60;;;;;;8335416;28;19917;-46
2023/03/14 23:24:48;;;;;;;;;;;20.30;33.60;;;;;;8334940;28;19917;-46